createdAt,value
2019-04-28T00:00:57.967Z,12.70
2019-04-28T00:03:28.544Z,12.70
2019-04-28T00:06:01.102Z,12.70
2019-04-28T00:08:32.994Z,12.70
2019-04-28T00:11:03.497Z,12.70
2019-04-28T00:13:41.797Z,12.70
2019-04-28T00:16:12.793Z,12.70
2019-04-28T00:18:43.211Z,12.70
2019-04-28T00:21:37.803Z,12.60
2019-04-28T00:24:28.101Z,12.60
2019-04-28T00:27:03.914Z,12.60
2019-04-28T00:29:40.484Z,12.60
2019-04-28T00:32:07.275Z,12.60
2019-04-28T00:34:37.944Z,12.60
2019-04-28T00:37:21.584Z,12.50
2019-04-28T00:39:52.326Z,12.50
2019-04-28T00:42:22.944Z,12.50
2019-04-28T00:44:54.830Z,12.50
2019-04-28T00:47:25.543Z,12.50
2019-04-28T00:49:56.052Z,12.50
2019-04-28T00:52:26.588Z,12.50
2019-04-28T00:54:57.190Z,12.50
2019-04-28T00:57:27.810Z,12.50
2019-04-28T00:59:59.001Z,12.40
2019-04-28T01:02:47.940Z,12.40
2019-04-28T01:05:21.244Z,12.40
2019-04-28T01:07:51.859Z,12.40
2019-04-28T01:10:23.199Z,12.50
2019-04-28T01:12:54.192Z,12.40
2019-04-28T01:15:47.204Z,12.40
2019-04-28T01:18:32.989Z,12.50
2019-04-28T01:21:03.631Z,12.50
2019-04-28T01:23:34.212Z,12.50
2019-04-28T01:26:04.944Z,12.60
2019-04-28T01:28:35.429Z,12.50
2019-04-28T01:31:16.905Z,12.50
2019-04-28T01:34:06.217Z,12.40
2019-04-28T01:36:37.749Z,12.40
2019-04-28T01:39:10.086Z,12.40
2019-04-28T01:41:41.169Z,12.30
2019-04-28T01:44:11.666Z,12.30
2019-04-28T01:46:42.277Z,12.30
2019-04-28T01:49:13.535Z,12.30
2019-04-28T01:51:44.049Z,12.30
2019-04-28T01:54:14.521Z,12.30
2019-04-28T01:56:45.363Z,12.30
2019-04-28T01:59:15.833Z,12.40
2019-04-28T02:01:46.523Z,12.30
2019-04-28T02:04:17.113Z,12.30
2019-04-28T02:06:49.698Z,12.40
2019-04-28T02:09:20.216Z,12.40
2019-04-28T02:11:50.703Z,12.40
2019-04-28T02:14:21.731Z,12.40
2019-04-28T02:16:52.437Z,12.40
2019-04-28T02:19:23.061Z,12.40
2019-04-28T02:22:15.465Z,12.30
2019-04-28T02:24:46.032Z,12.30
2019-04-28T02:27:16.982Z,12.30
2019-04-28T02:29:49.793Z,12.30
2019-04-28T02:32:23.776Z,12.20
2019-04-28T02:34:52.207Z,12.20
2019-04-28T02:37:22.891Z,12.20
2019-04-28T02:39:53.883Z,12.20
2019-04-28T02:42:25.051Z,12.20
2019-04-28T02:44:55.886Z,12.10
2019-04-28T02:47:26.302Z,12.20
2019-04-28T02:50:05.505Z,12.20
2019-04-28T02:53:01.619Z,12.20
2019-04-28T02:55:33.241Z,12.10
2019-04-28T02:58:04.863Z,12.10
2019-04-28T03:00:35.333Z,12.10
2019-04-28T03:03:06.181Z,12.10
2019-04-28T03:05:37.450Z,12.10
2019-04-28T03:08:07.998Z,12.10
2019-04-28T03:10:40.816Z,12.20
2019-04-28T03:13:13.430Z,12.20
2019-04-28T03:15:43.786Z,12.20
2019-04-28T03:18:14.502Z,12.20
2019-04-28T03:20:45.382Z,12.10
2019-04-28T03:23:16.601Z,12.10
2019-04-28T03:26:15.452Z,12.10
2019-04-28T03:29:04.658Z,12.10
2019-04-28T03:32:14.171Z,12.00
2019-04-28T03:34:23.485Z,12.00
2019-04-28T03:36:53.417Z,12.00
2019-04-28T03:39:25.418Z,11.90
2019-04-28T03:41:55.952Z,11.90
2019-04-28T03:44:26.564Z,11.90
2019-04-28T03:46:57.384Z,11.90
2019-04-28T03:49:35.757Z,12.00
2019-04-28T03:52:07.015Z,12.00
2019-04-28T03:54:40.668Z,12.10
2019-04-28T03:57:11.312Z,12.00
2019-04-28T03:59:43.839Z,12.10
2019-04-28T04:02:14.588Z,12.00
2019-04-28T04:04:45.083Z,11.90
2019-04-28T04:07:15.603Z,11.90
2019-04-28T04:09:53.624Z,11.90
2019-04-28T04:12:41.598Z,11.90
2019-04-28T04:15:35.175Z,11.90
2019-04-28T04:18:11.036Z,11.90
2019-04-28T04:20:41.749Z,11.80
2019-04-28T04:23:12.212Z,11.90
2019-04-28T04:25:43.117Z,11.90
2019-04-28T04:28:13.822Z,11.90
2019-04-28T04:30:44.614Z,12.00
2019-04-28T04:33:15.380Z,11.90
2019-04-28T04:35:45.950Z,11.90
2019-04-28T04:38:16.711Z,11.90
2019-04-28T04:40:47.721Z,11.90
2019-04-28T04:43:22.974Z,11.90
2019-04-28T04:45:53.873Z,11.90
2019-04-28T04:48:24.346Z,11.80
2019-04-28T04:50:55.287Z,11.80
2019-04-28T04:53:25.968Z,11.80
2019-04-28T04:55:56.692Z,11.80
2019-04-28T04:58:27.383Z,11.80
2019-04-28T05:01:06.860Z,11.80
2019-04-28T05:03:39.731Z,11.80
2019-04-28T05:06:29.697Z,11.90
2019-04-28T05:09:00.348Z,11.80
2019-04-28T05:11:32.572Z,12.00
2019-04-28T05:14:03.376Z,12.00
2019-04-28T05:16:34.596Z,11.90
2019-04-28T05:19:05.862Z,11.90
2019-04-28T05:21:36.323Z,11.90
2019-04-28T05:24:17.507Z,11.90
2019-04-28T05:26:49.583Z,11.90
2019-04-28T05:29:26.499Z,12.00
2019-04-28T05:31:54.830Z,12.00
2019-04-28T05:34:25.490Z,11.90
2019-04-28T05:36:57.056Z,11.90
2019-04-28T05:39:29.292Z,11.80
2019-04-28T05:42:00.831Z,11.80
2019-04-28T05:44:32.173Z,11.80
2019-04-28T05:47:20.892Z,11.80
2019-04-28T05:50:19.707Z,11.80
2019-04-28T05:53:10.639Z,11.70
2019-04-28T05:56:00.398Z,11.70
2019-04-28T05:58:40.199Z,11.70
2019-04-28T06:01:30.352Z,11.70
2019-04-28T06:04:01.003Z,11.70
2019-04-28T06:06:35.263Z,11.70
2019-04-28T06:09:29.937Z,11.80
2019-04-28T06:12:00.406Z,11.80
2019-04-28T06:14:30.978Z,11.90
2019-04-28T06:17:04.064Z,11.90
2019-04-28T06:19:34.035Z,12.00
2019-04-28T06:22:04.509Z,12.10
2019-04-28T06:24:35.299Z,12.20
2019-04-28T06:27:05.917Z,12.20
2019-04-28T06:29:36.629Z,12.30
2019-04-28T06:32:07.152Z,12.30
2019-04-28T06:34:37.779Z,12.30
2019-04-28T06:37:08.355Z,12.30
2019-04-28T06:39:39.125Z,12.30
2019-04-28T06:42:11.335Z,12.50
2019-04-28T06:44:41.886Z,12.50
2019-04-28T06:47:12.522Z,12.50
2019-04-28T06:49:43.435Z,12.50
2019-04-28T06:52:14.255Z,12.50
2019-04-28T06:54:44.868Z,12.50
2019-04-28T06:57:15.430Z,12.60
2019-04-28T06:59:45.927Z,12.80
2019-04-28T07:02:16.808Z,12.80
2019-04-28T07:04:47.946Z,12.80
2019-04-28T07:07:18.748Z,12.70
2019-04-28T07:09:49.536Z,12.70
2019-04-28T07:12:20.122Z,12.70
2019-04-28T07:14:50.914Z,12.60
2019-04-28T07:17:21.892Z,12.50
2019-04-28T07:20:00.837Z,12.50
2019-04-28T07:22:31.833Z,12.60
2019-04-28T07:25:02.487Z,12.70
2019-04-28T07:27:33.096Z,12.70
2019-04-28T07:30:04.032Z,12.70
2019-04-28T07:32:34.988Z,12.90
2019-04-28T07:35:05.981Z,12.90
2019-04-28T07:37:36.794Z,12.90
2019-04-28T07:40:07.522Z,12.90
2019-04-28T07:42:38.205Z,12.80
2019-04-28T07:45:09.157Z,12.80
2019-04-28T07:47:40.232Z,12.80
2019-04-28T07:50:11.085Z,12.70
2019-04-28T07:52:46.637Z,12.90
2019-04-28T07:55:17.265Z,12.90
2019-04-28T07:57:47.735Z,13.00
2019-04-28T08:00:24.012Z,13.10
2019-04-28T08:02:54.673Z,13.10
2019-04-28T08:05:25.369Z,13.10
2019-04-28T08:07:56.153Z,13.20
2019-04-28T08:10:26.861Z,13.20
2019-04-28T08:12:57.443Z,13.20
2019-04-28T08:15:28.119Z,13.20
2019-04-28T08:17:58.787Z,13.30
2019-04-28T08:20:29.389Z,13.20
2019-04-28T08:23:00.189Z,13.10
2019-04-28T08:25:31.271Z,13.20
2019-04-28T08:28:02.172Z,13.40
2019-04-28T08:30:32.635Z,13.40
2019-04-28T08:33:12.679Z,13.50
2019-04-28T08:35:43.154Z,13.50
2019-04-28T08:38:13.629Z,13.60
2019-04-28T08:40:44.284Z,13.80
2019-04-28T08:43:15.061Z,13.80
2019-04-28T08:45:45.587Z,13.80
2019-04-28T08:48:17.207Z,13.70
2019-04-28T08:50:48.086Z,13.80
2019-04-28T08:53:18.967Z,13.90
2019-04-28T08:55:49.591Z,13.80
2019-04-28T08:58:19.986Z,13.80
2019-04-28T09:00:50.630Z,13.80
2019-04-28T09:03:21.233Z,13.80
2019-04-28T09:05:51.846Z,13.90
2019-04-28T09:08:22.277Z,14.00
2019-04-28T09:10:52.676Z,14.00
2019-04-28T09:13:24.224Z,13.90
2019-04-28T09:15:54.834Z,13.90
2019-04-28T09:18:25.252Z,13.80
2019-04-28T09:20:55.864Z,13.60
2019-04-28T09:23:26.388Z,13.40
2019-04-28T09:25:56.941Z,13.40
2019-04-28T09:28:27.536Z,13.40
2019-04-28T09:30:57.972Z,13.40
2019-04-28T09:33:28.392Z,13.40
2019-04-28T09:35:58.930Z,13.50
2019-04-28T09:38:29.752Z,13.60
2019-04-28T09:41:00.301Z,13.60
2019-04-28T09:43:58.937Z,13.60
2019-04-28T09:46:35.410Z,13.30
2019-04-28T09:49:07.041Z,13.30
2019-04-28T09:51:38.444Z,13.10
2019-04-28T09:54:09.186Z,13.10
2019-04-28T09:56:39.774Z,13.10
2019-04-28T09:59:10.209Z,13.10
2019-04-28T10:01:40.931Z,13.20
2019-04-28T10:04:11.353Z,13.20
2019-04-28T10:06:41.847Z,13.20
2019-04-28T10:09:12.993Z,13.10
2019-04-28T10:11:44.110Z,13.00
2019-04-28T10:14:14.571Z,13.00
2019-04-28T10:16:45.261Z,13.10
2019-04-28T10:19:15.864Z,13.00
2019-04-28T10:21:46.647Z,12.80
2019-04-28T10:24:18.511Z,12.60
2019-04-28T10:26:48.977Z,12.50
2019-04-28T10:29:19.541Z,12.40
2019-04-28T10:31:50.067Z,12.30
2019-04-28T10:34:20.623Z,12.40
2019-04-28T10:36:51.177Z,12.30
2019-04-28T10:39:29.509Z,12.40
2019-04-28T10:42:00.067Z,12.40
2019-04-28T10:44:32.311Z,12.40
2019-04-28T10:47:02.771Z,12.30
2019-04-28T10:49:33.787Z,12.40
2019-04-28T10:52:04.871Z,12.30
2019-04-28T10:54:35.719Z,12.30
2019-04-28T10:57:06.518Z,12.30
2019-04-28T10:59:37.253Z,12.30
2019-04-28T11:02:07.717Z,12.30
2019-04-28T11:04:52.559Z,12.30
2019-04-28T11:07:23.469Z,12.20
2019-04-28T11:10:15.768Z,12.20
2019-04-28T11:12:46.507Z,12.40
2019-04-28T11:15:48.433Z,12.40
2019-04-28T11:18:19.550Z,12.40
2019-04-28T11:20:50.136Z,12.40
2019-04-28T11:23:23.181Z,12.50
2019-04-28T11:25:53.074Z,12.50
2019-04-28T11:28:23.710Z,12.60
2019-04-28T11:30:54.689Z,12.70
2019-04-28T11:33:47.111Z,12.70
2019-04-28T11:36:19.548Z,12.60
2019-04-28T11:38:50.664Z,12.70
2019-04-28T11:41:21.224Z,12.60
2019-04-28T11:43:52.241Z,12.60
2019-04-28T11:46:24.404Z,12.60
2019-04-28T11:48:55.336Z,12.40
2019-04-28T11:51:27.900Z,12.50
2019-04-28T11:53:59.617Z,12.50
2019-04-28T11:56:40.745Z,12.70
2019-04-28T11:59:03.026Z,12.90
2019-04-28T12:01:33.832Z,12.90
2019-04-28T12:04:06.067Z,13.00
2019-04-28T12:06:36.625Z,13.00
2019-04-28T12:09:22.349Z,13.00
2019-04-28T12:11:53.715Z,13.10
2019-04-28T12:14:32.563Z,13.20
2019-04-28T12:17:21.982Z,13.10
2019-04-28T12:19:55.848Z,13.10
2019-04-28T12:22:26.471Z,13.10
2019-04-28T12:24:56.951Z,13.10
2019-04-28T12:27:27.874Z,13.00
2019-04-28T12:29:58.555Z,12.90
2019-04-28T12:32:29.157Z,12.80
2019-04-28T12:34:59.693Z,12.70
2019-04-28T12:37:30.465Z,12.70
2019-04-28T12:40:00.898Z,12.60
2019-04-28T12:42:33.189Z,12.70
2019-04-28T12:45:04.191Z,12.60
2019-04-28T12:47:35.237Z,12.70
2019-04-28T12:50:17.845Z,12.70
2019-04-28T12:52:49.883Z,12.60
2019-04-28T12:55:20.278Z,12.50
2019-04-28T12:57:50.806Z,12.50
2019-04-28T13:00:43.927Z,12.50
2019-04-28T13:03:31.107Z,12.50
2019-04-28T13:06:05.834Z,12.60
2019-04-28T13:08:35.152Z,12.60
2019-04-28T13:11:05.856Z,12.70
2019-04-28T13:13:36.782Z,12.60
2019-04-28T13:16:07.354Z,12.50
2019-04-28T13:18:38.699Z,12.50
2019-04-28T13:21:10.304Z,12.50
2019-04-28T13:23:41.075Z,12.60
2019-04-28T13:26:11.794Z,12.60
2019-04-28T13:28:43.672Z,12.60
2019-04-28T13:31:14.278Z,12.60
2019-04-28T13:33:55.919Z,12.70
2019-04-28T13:36:17.126Z,12.70
2019-04-28T13:38:47.870Z,12.80
2019-04-28T13:41:18.608Z,12.90
2019-04-28T13:43:49.504Z,13.00
2019-04-28T13:46:20.338Z,13.00
2019-04-28T13:48:51.031Z,12.90
2019-04-28T13:51:21.979Z,12.90
2019-04-28T13:53:52.704Z,12.80
2019-04-28T13:56:23.444Z,12.90
2019-04-28T13:59:00.066Z,13.00
2019-04-28T14:01:48.480Z,13.00
2019-04-28T14:04:38.011Z,12.90
2019-04-28T14:07:09.282Z,12.90
2019-04-28T14:09:39.781Z,12.90
2019-04-28T14:12:10.746Z,12.80
2019-04-28T14:14:41.424Z,12.70
2019-04-28T14:17:12.129Z,12.70
2019-04-28T14:19:42.711Z,12.70
2019-04-28T14:22:13.521Z,12.70
2019-04-28T14:24:44.404Z,12.70
2019-04-28T14:27:15.049Z,12.70
2019-04-28T14:29:45.914Z,12.60
2019-04-28T14:32:16.429Z,12.60
2019-04-28T14:34:47.212Z,12.60
2019-04-28T14:37:17.883Z,12.60
2019-04-28T14:39:48.617Z,12.60
2019-04-28T14:42:19.305Z,12.60
2019-04-28T14:44:50.020Z,12.60
2019-04-28T14:47:21.665Z,12.70
2019-04-28T14:49:52.705Z,12.70
2019-04-28T14:52:23.533Z,12.60
2019-04-28T14:54:54.679Z,12.60
2019-04-28T14:57:25.444Z,12.70
2019-04-28T14:59:58.165Z,12.60
2019-04-28T15:02:52.673Z,12.50
2019-04-28T15:05:31.432Z,12.60
2019-04-28T15:08:27.111Z,12.60
2019-04-28T15:11:15.607Z,12.60
2019-04-28T15:13:46.277Z,12.60
2019-04-28T15:16:17.239Z,12.60
2019-04-28T15:18:47.944Z,12.60
2019-04-28T15:21:18.654Z,12.70
2019-04-28T15:23:49.187Z,12.70
2019-04-28T15:26:19.848Z,12.80
2019-04-28T15:28:50.354Z,12.70
2019-04-28T15:31:20.885Z,12.70
2019-04-28T15:33:51.398Z,12.70
2019-04-28T15:36:21.928Z,12.70
2019-04-28T15:38:53.684Z,12.70
2019-04-28T15:41:24.394Z,12.70
2019-04-28T15:43:55.280Z,12.70
2019-04-28T15:46:26.172Z,12.70
2019-04-28T15:48:56.944Z,12.70
2019-04-28T15:51:27.682Z,12.60
2019-04-28T15:53:58.646Z,12.60
2019-04-28T15:56:44.758Z,12.60
2019-04-28T15:59:15.250Z,12.60
2019-04-28T16:01:46.219Z,12.60
2019-04-28T16:04:18.488Z,12.70
2019-04-28T16:06:49.317Z,12.70
2019-04-28T16:09:19.798Z,12.60
2019-04-28T16:11:50.615Z,12.60
2019-04-28T16:14:21.192Z,12.60
2019-04-28T16:16:52.005Z,12.60
2019-04-28T16:19:28.275Z,12.60
2019-04-28T16:21:58.717Z,12.60
2019-04-28T16:24:29.509Z,12.60
2019-04-28T16:27:00.293Z,12.70
2019-04-28T16:29:30.735Z,12.70
2019-04-28T16:32:01.239Z,12.70
2019-04-28T16:34:32.038Z,12.70
2019-04-28T16:37:02.979Z,12.70
2019-04-28T16:39:33.518Z,12.70
2019-04-28T16:42:05.167Z,12.60
2019-04-28T16:44:38.983Z,12.60
2019-04-28T16:47:09.605Z,12.60
2019-04-28T16:49:40.123Z,12.50
2019-04-28T16:52:10.635Z,12.50
2019-04-28T16:54:41.187Z,12.50
2019-04-28T16:57:33.634Z,12.60
2019-04-28T17:00:14.303Z,12.60
2019-04-28T17:02:47.532Z,12.60
2019-04-28T17:05:18.003Z,12.60
2019-04-28T17:07:53.116Z,12.60
2019-04-28T17:10:20.787Z,12.70
2019-04-28T17:12:51.271Z,12.70
2019-04-28T17:15:21.798Z,12.70
2019-04-28T17:17:52.560Z,12.80
2019-04-28T17:20:23.204Z,12.70
2019-04-28T17:22:53.833Z,12.70
2019-04-28T17:25:24.350Z,12.60
2019-04-28T17:27:55.035Z,12.60
2019-04-28T17:30:25.680Z,12.60
2019-04-28T17:32:56.355Z,12.60
2019-04-28T17:35:26.743Z,12.60
2019-04-28T17:38:06.459Z,12.50
2019-04-28T17:40:30.461Z,12.50
2019-04-28T17:43:09.295Z,12.50
2019-04-28T17:45:39.983Z,12.50
2019-04-28T17:48:17.737Z,12.40
2019-04-28T17:50:48.487Z,12.40
2019-04-28T17:53:19.193Z,12.40
2019-04-28T17:55:49.844Z,12.40
2019-04-28T17:58:20.287Z,12.40
2019-04-28T18:01:15.279Z,12.40
2019-04-28T18:04:20.728Z,12.50
2019-04-28T18:06:55.813Z,12.50
2019-04-28T18:09:26.317Z,12.50
2019-04-28T18:11:57.131Z,12.50
2019-04-28T18:14:27.872Z,12.40
2019-04-28T18:17:33.657Z,12.40
2019-04-28T18:20:04.964Z,12.40
2019-04-28T18:22:37.836Z,12.40
2019-04-28T18:25:08.693Z,12.30
2019-04-28T18:27:39.447Z,12.30
2019-04-28T18:30:11.447Z,12.30
2019-04-28T18:33:09.763Z,12.30
2019-04-28T18:35:44.142Z,12.30
2019-04-28T18:38:34.691Z,12.40
2019-04-28T18:41:09.981Z,12.40
2019-04-28T18:43:59.528Z,12.40
2019-04-28T18:46:30.959Z,12.40
2019-04-28T18:49:02.123Z,12.40
2019-04-28T18:51:33.353Z,12.30
2019-04-28T18:54:04.043Z,12.30
2019-04-28T18:56:34.633Z,12.30
2019-04-28T18:59:05.495Z,12.30
2019-04-28T19:02:01.115Z,12.30
2019-04-28T19:04:32.410Z,12.40
2019-04-28T19:07:05.278Z,12.40
2019-04-28T19:10:03.745Z,12.40
2019-04-28T19:12:47.258Z,12.40
2019-04-28T19:15:37.255Z,12.40
2019-04-28T19:18:12.250Z,12.40
2019-04-28T19:20:42.892Z,12.50
2019-04-28T19:23:14.428Z,12.50
2019-04-28T19:25:45.227Z,12.50
2019-04-28T19:28:16.027Z,12.60
2019-04-28T19:30:46.573Z,12.70
2019-04-28T19:33:17.543Z,12.70
2019-04-28T19:35:48.171Z,12.60
2019-04-28T19:38:19.090Z,12.60
2019-04-28T19:40:49.859Z,12.60
2019-04-28T19:43:20.658Z,12.60
2019-04-28T19:45:53.063Z,12.50
2019-04-28T19:48:24.058Z,12.50
2019-04-28T19:50:55.312Z,12.40
2019-04-28T19:53:26.956Z,12.40
2019-04-28T19:56:03.363Z,12.40
2019-04-28T19:58:38.550Z,12.40
2019-04-28T20:01:14.451Z,12.40
2019-04-28T20:03:45.766Z,12.40
2019-04-28T20:06:16.706Z,12.40
2019-04-28T20:08:47.521Z,12.40
2019-04-28T20:11:18.048Z,12.40
2019-04-28T20:13:48.870Z,12.40
2019-04-28T20:16:20.034Z,12.30
2019-04-28T20:18:50.564Z,12.30
2019-04-28T20:21:21.105Z,12.30
2019-04-28T20:23:52.014Z,12.30
2019-04-28T20:26:22.943Z,12.20
2019-04-28T20:28:54.329Z,12.20
2019-04-28T20:31:25.059Z,12.10
2019-04-28T20:33:55.794Z,12.10
2019-04-28T20:36:43.555Z,12.10
2019-04-28T20:39:21.952Z,12.10
2019-04-28T20:41:52.505Z,12.10
2019-04-28T20:44:23.705Z,12.10
2019-04-28T20:46:54.261Z,12.00
2019-04-28T20:49:24.776Z,12.10
2019-04-28T20:51:55.311Z,12.00
2019-04-28T20:54:26.265Z,12.00
2019-04-28T20:56:56.917Z,12.10
2019-04-28T20:59:27.481Z,12.10
2019-04-28T21:01:57.971Z,12.10
2019-04-28T21:04:28.553Z,12.10
2019-04-28T21:07:00.387Z,12.10
2019-04-28T21:09:31.220Z,12.20
2019-04-28T21:12:01.685Z,12.20
2019-04-28T21:14:32.389Z,12.10
2019-04-28T21:17:02.803Z,12.10
2019-04-28T21:19:33.285Z,12.10
2019-04-28T21:22:03.963Z,12.10
2019-04-28T21:24:34.427Z,12.20
2019-04-28T21:27:04.992Z,12.20
2019-04-28T21:29:35.653Z,12.20
2019-04-28T21:32:06.173Z,12.20
2019-04-28T21:34:37.215Z,12.20
2019-04-28T21:37:07.644Z,12.20
2019-04-28T21:39:38.526Z,12.20
2019-04-28T21:42:12.502Z,12.20
2019-04-28T21:45:02.013Z,12.30
2019-04-28T21:47:34.188Z,12.30
2019-04-28T21:50:05.424Z,12.30
2019-04-28T21:52:36.070Z,12.40
2019-04-28T21:55:07.150Z,12.30
2019-04-28T21:57:37.606Z,12.40
2019-04-28T22:00:10.118Z,12.40
2019-04-28T22:02:40.018Z,12.30
2019-04-28T22:05:10.843Z,12.30
2019-04-28T22:07:43.550Z,12.40
2019-04-28T22:10:14.134Z,12.40
2019-04-28T22:12:44.728Z,12.40
2019-04-28T22:15:15.444Z,12.40
2019-04-28T22:17:46.118Z,12.40
2019-04-28T22:20:16.740Z,12.40
2019-04-28T22:22:47.491Z,12.40
2019-04-28T22:25:20.824Z,12.50
2019-04-28T22:27:51.526Z,12.40
2019-04-28T22:30:22.215Z,12.40
2019-04-28T22:32:52.714Z,12.50
2019-04-28T22:35:23.383Z,12.50
2019-04-28T22:37:54.221Z,12.50
2019-04-28T22:40:24.817Z,12.50
2019-04-28T22:42:55.452Z,12.50
2019-04-28T22:45:26.425Z,12.50
2019-04-28T22:47:57.092Z,12.50
2019-04-28T22:50:41.349Z,12.50
2019-04-28T22:53:12.525Z,12.50
2019-04-28T22:55:51.141Z,12.50
2019-04-28T22:58:31.263Z,12.50
2019-04-28T23:01:07.828Z,12.40
2019-04-28T23:04:03.464Z,12.40
2019-04-28T23:06:33.994Z,12.40
2019-04-28T23:09:05.779Z,12.40
2019-04-28T23:11:37.887Z,12.40
2019-04-28T23:14:08.748Z,12.40
2019-04-28T23:16:39.551Z,12.50
2019-04-28T23:19:12.578Z,12.50
2019-04-28T23:21:57.994Z,12.50
2019-04-28T23:24:28.927Z,12.40
2019-04-28T23:26:59.429Z,12.40
2019-04-28T23:29:30.684Z,12.40
2019-04-28T23:32:01.546Z,12.40
2019-04-28T23:34:32.145Z,12.40
2019-04-28T23:37:02.787Z,12.50
2019-04-28T23:39:33.330Z,12.50
2019-04-28T23:42:22.941Z,12.50
2019-04-28T23:44:53.708Z,12.50
2019-04-28T23:47:24.550Z,12.40
2019-04-28T23:49:55.393Z,12.50
2019-04-28T23:52:48.947Z,12.40
2019-04-28T23:55:21.378Z,12.40
2019-04-28T23:57:52.136Z,12.40
